EKCH/CPH METAR and TAF weather

Enter ICAO airport designator
Station Type Date Time Source
EKCH METAR 2019/12/11 15:20 UTC NOAA

EKCH 111520Z 20007KT 9999 -DZRA BKN006 05/05 Q1005 NOSIG


Station Type Date Time Source
EKCH Decoded METAR 2019/12/11 15:20 UTC NOAA

Koebenhavn / Kastrup, Denmark (EKCH) 55-37N 012-39E 5M
Dec 11, 2019 - 10:20 AM EST / 2019.12.11 1520 UTC
Wind: from the SSW (200 degrees) at 8 MPH (7 KT):0
Visibility: greater than 7 mile(s):0
Sky conditions: mostly cloudy
Weather: light drizzle, rain
Temperature: 41 F (5 C)
Dew Point: 41 F (5 C)
Relative Humidity: 100%
Pressure (altimeter): 29.68 in. Hg (1005 hPa)
ob: EKCH 111520Z 20007KT 9999 -DZRA BKN006 05/05 Q1005 NOSIG
cycle: 15

Station Type Date Time Source
EKCH TAF 2019/12/11 12:12 UTC NOAA

TAF TAF EKCH 111104Z 1112/1212 20010KT 9999 -RA BKN012
TEMPO 1112/1208 RA BKN008
BECMG 1208/1210 SCT020

Example: see airport list